createdAt,value
2022-09-24T00:01:32.768Z,101267.63
2022-09-24T00:04:02.424Z,101276.91
2022-09-24T00:06:34.615Z,101270.59
2022-09-24T00:09:02.202Z,101264.44
2022-09-24T00:11:32.218Z,101271.59
2022-09-24T00:14:00.684Z,101264.44
2022-09-24T00:16:31.732Z,101261.78
2022-09-24T00:18:59.786Z,101268.09
2022-09-24T00:21:29.251Z,101259.47
2022-09-24T00:23:58.925Z,101258.63
2022-09-24T00:26:44.649Z,101256.16
2022-09-24T00:29:16.320Z,101259.00
2022-09-24T00:31:44.192Z,101254.50
2022-09-24T00:34:11.866Z,101253.84
2022-09-24T00:36:39.477Z,101251.53
2022-09-24T00:39:07.724Z,101258.50
2022-09-24T00:41:38.701Z,101257.88
2022-09-24T00:44:54.825Z,101249.03
2022-09-24T00:47:30.463Z,101249.25
2022-09-24T00:50:06.257Z,101251.91
2022-09-24T00:52:34.970Z,101253.53
2022-09-24T00:55:02.698Z,101247.22
2022-09-24T00:57:30.413Z,101248.22
2022-09-24T00:59:58.067Z,101250.03
2022-09-24T01:02:27.128Z,101255.38
2022-09-24T01:04:56.650Z,101245.56
2022-09-24T01:07:25.384Z,101240.91
2022-09-24T01:09:53.156Z,101247.84
2022-09-24T01:12:28.328Z,101247.69
2022-09-24T01:15:07.969Z,101240.91
2022-09-24T01:17:44.762Z,101238.03
2022-09-24T01:20:47.160Z,101236.03
2022-09-24T01:23:48.812Z,101240.19
2022-09-24T01:26:36.058Z,101232.84
2022-09-24T01:29:32.109Z,101229.16
2022-09-24T01:32:05.814Z,101222.00
2022-09-24T01:34:40.894Z,101221.63
2022-09-24T01:37:09.169Z,101219.81
2022-09-24T01:39:39.109Z,101212.66
2022-09-24T01:42:08.022Z,101217.78
2022-09-24T01:44:37.482Z,101215.78
2022-09-24T01:47:08.615Z,101209.63
2022-09-24T01:49:36.254Z,101213.13
2022-09-24T01:52:10.911Z,101211.94
2022-09-24T01:54:43.225Z,101210.94
2022-09-24T01:57:14.721Z,101212.41
2022-09-24T01:59:50.102Z,101211.75
2022-09-24T02:02:27.597Z,101212.41
2022-09-24T02:05:03.346Z,101206.25
2022-09-24T02:07:35.562Z,101207.91
2022-09-24T02:10:03.132Z,101208.72
2022-09-24T02:12:42.879Z,101213.03
2022-09-24T02:15:17.310Z,101206.88
2022-09-24T02:17:48.556Z,101212.22
2022-09-24T02:20:20.847Z,101210.38
2022-09-24T02:22:50.391Z,101200.72
2022-09-24T02:25:23.547Z,101201.56
2022-09-24T02:27:51.162Z,101203.38
2022-09-24T02:30:20.151Z,101198.72
2022-09-24T02:32:48.925Z,101204.69
2022-09-24T02:35:15.827Z,101197.53
2022-09-24T02:37:44.952Z,101199.00
2022-09-24T02:40:15.462Z,101195.34
2022-09-24T02:42:44.095Z,101203.81
2022-09-24T02:45:14.121Z,101202.63
2022-09-24T02:47:42.998Z,101195.09
2022-09-24T02:50:10.786Z,101197.56
2022-09-24T02:52:38.334Z,101188.38
2022-09-24T02:55:06.490Z,101192.50
2022-09-24T02:57:34.431Z,101187.00
2022-09-24T03:00:02.597Z,101189.47
2022-09-24T03:02:30.207Z,101184.00
2022-09-24T03:04:59.180Z,101181.13
2022-09-24T03:07:26.707Z,101185.63
2022-09-24T03:09:54.233Z,101183.78
2022-09-24T03:12:21.754Z,101192.63
2022-09-24T03:14:49.294Z,101193.25
2022-09-24T03:17:16.848Z,101200.06
2022-09-24T03:19:44.367Z,101191.09
2022-09-24T03:22:13.243Z,101190.09
2022-09-24T03:24:40.766Z,101196.06
2022-09-24T03:27:08.299Z,101197.72
2022-09-24T03:29:52.766Z,101195.69
2022-09-24T03:32:20.299Z,101191.19
2022-09-24T03:34:47.886Z,101194.50
2022-09-24T03:37:16.764Z,101193.69
2022-09-24T03:39:44.283Z,101184.66
2022-09-24T03:42:12.170Z,101184.50
2022-09-24T03:44:39.677Z,101196.78
2022-09-24T03:47:07.502Z,101185.31
2022-09-24T03:49:35.030Z,101182.66
2022-09-24T03:52:02.759Z,101184.50
2022-09-24T03:54:31.696Z,101181.00
2022-09-24T03:56:59.231Z,101174.47
2022-09-24T03:59:26.735Z,101184.97
2022-09-24T04:01:54.284Z,101170.78
2022-09-24T04:04:21.840Z,101167.09
2022-09-24T04:06:49.824Z,101169.75
2022-09-24T04:09:17.351Z,101168.75
2022-09-24T04:11:46.227Z,101167.75
2022-09-24T04:14:13.774Z,101170.22
2022-09-24T04:16:41.384Z,101171.06
2022-09-24T04:19:08.931Z,101179.88
2022-09-24T04:21:36.467Z,101166.38
2022-09-24T04:24:04.002Z,101168.22
2022-09-24T04:26:31.643Z,101172.72
2022-09-24T04:29:00.562Z,101164.53
2022-09-24T04:31:28.436Z,101163.53
2022-09-24T04:33:56.083Z,101162.50
2022-09-24T04:36:23.611Z,101161.69
2022-09-24T04:38:51.162Z,101170.31
2022-09-24T04:41:18.876Z,101170.97
2022-09-24T04:43:47.234Z,101169.75
2022-09-24T04:46:16.136Z,101166.91
2022-09-24T04:48:43.733Z,101166.72
2022-09-24T04:51:11.417Z,101163.88
2022-09-24T04:53:38.962Z,101161.22
2022-09-24T04:56:11.887Z,101168.22
2022-09-24T04:58:39.853Z,101168.22
2022-09-24T05:01:07.464Z,101166.56
2022-09-24T05:03:36.462Z,101164.88
2022-09-24T05:06:04.084Z,101174.72
2022-09-24T05:08:31.627Z,101176.59
2022-09-24T05:10:59.343Z,101175.56
2022-09-24T05:13:27.402Z,101176.38
2022-09-24T05:15:55.433Z,101183.56
2022-09-24T05:18:23.011Z,101179.88
2022-09-24T05:20:52.338Z,101181.56
2022-09-24T05:23:19.882Z,101183.19
2022-09-24T05:26:05.159Z,101175.84
2022-09-24T05:28:33.292Z,101172.97
2022-09-24T05:31:02.089Z,101185.94
2022-09-24T05:33:29.689Z,101186.19
2022-09-24T05:35:59.145Z,101186.66
2022-09-24T05:38:26.874Z,101183.63
2022-09-24T05:40:54.751Z,101188.59
2022-09-24T05:43:22.567Z,101182.03
2022-09-24T05:45:50.517Z,101186.19
2022-09-24T05:48:18.142Z,101185.00
2022-09-24T05:50:45.678Z,101188.28
2022-09-24T05:53:14.570Z,101190.38
2022-09-24T05:55:44.005Z,101186.34
2022-09-24T05:58:12.576Z,101182.09
2022-09-24T06:00:40.154Z,101181.91
2022-09-24T06:03:11.756Z,101184.84
2022-09-24T06:05:39.386Z,101191.09
2022-09-24T06:08:08.059Z,101198.34
2022-09-24T06:10:38.695Z,101194.91
2022-09-24T06:13:06.238Z,101200.13
2022-09-24T06:15:34.952Z,101196.69
2022-09-24T06:18:02.607Z,101199.63
2022-09-24T06:20:30.130Z,101200.69
2022-09-24T06:22:58.350Z,101199.09
2022-09-24T06:25:26.211Z,101198.16
2022-09-24T06:28:00.602Z,101202.34
2022-09-24T06:30:29.738Z,101203.91
2022-09-24T06:33:02.912Z,101216.53
2022-09-24T06:35:30.466Z,101204.31
2022-09-24T06:37:58.094Z,101207.44
2022-09-24T06:40:26.603Z,101206.72
2022-09-24T06:42:54.735Z,101204.13
2022-09-24T06:45:23.969Z,101213.88
2022-09-24T06:47:55.172Z,101214.56
2022-09-24T06:50:23.591Z,101217.50
2022-09-24T06:52:51.194Z,101217.97
2022-09-24T06:55:19.356Z,101220.28
2022-09-24T06:57:47.110Z,101222.22
2022-09-24T07:00:16.112Z,101218.31
2022-09-24T07:02:45.035Z,101218.75
2022-09-24T07:05:12.571Z,101217.94
2022-09-24T07:07:41.318Z,101216.72
2022-09-24T07:10:10.481Z,101213.63
2022-09-24T07:12:38.151Z,101216.13
2022-09-24T07:15:06.704Z,101231.78
2022-09-24T07:17:34.315Z,101230.56
2022-09-24T07:20:03.941Z,101226.03
2022-09-24T07:22:31.722Z,101218.38
2022-09-24T07:24:59.390Z,101218.38
2022-09-24T07:27:26.950Z,101222.91
2022-09-24T07:29:54.914Z,101221.44
2022-09-24T07:32:27.500Z,101221.63
2022-09-24T07:34:57.208Z,101230.25
2022-09-24T07:37:26.131Z,101225.09
2022-09-24T07:39:53.701Z,101223.59
2022-09-24T07:42:21.672Z,101233.66
2022-09-24T07:44:49.264Z,101230.34
2022-09-24T07:47:16.864Z,101227.41
2022-09-24T07:49:44.775Z,101233.31
2022-09-24T07:52:12.423Z,101226.63
2022-09-24T07:54:41.323Z,101236.69
2022-09-24T07:57:13.001Z,101226.94
2022-09-24T07:59:41.316Z,101229.78
2022-09-24T08:02:16.238Z,101222.88
2022-09-24T08:04:44.130Z,101236.78
2022-09-24T08:07:12.534Z,101234.41
2022-09-24T08:09:41.696Z,101236.41
2022-09-24T08:12:12.312Z,101237.91
2022-09-24T08:14:39.928Z,101240.44
2022-09-24T08:17:07.460Z,101232.63
2022-09-24T08:19:35.002Z,101239.66
2022-09-24T08:22:05.192Z,101232.75
2022-09-24T08:24:32.770Z,101234.41
2022-09-24T08:27:01.707Z,101237.34
2022-09-24T08:29:29.330Z,101246.19
2022-09-24T08:31:56.871Z,101245.50
2022-09-24T08:34:24.988Z,101237.81
2022-09-24T08:36:52.566Z,101244.78
2022-09-24T08:39:20.105Z,101247.03
2022-09-24T08:41:57.004Z,101240.94
2022-09-24T08:44:49.024Z,101233.03
2022-09-24T08:47:26.128Z,101242.97
2022-09-24T08:50:02.798Z,101242.06
2022-09-24T08:52:43.006Z,101246.63
2022-09-24T08:55:15.667Z,101251.56
2022-09-24T08:57:59.107Z,101240.03
2022-09-24T09:00:30.403Z,101249.25
2022-09-24T09:03:07.554Z,101246.50
2022-09-24T09:05:50.307Z,101250.81
2022-09-24T09:08:50.511Z,101255.63
2022-09-24T09:11:21.147Z,101245.34
2022-09-24T09:13:54.153Z,101252.78
2022-09-24T09:16:27.659Z,101247.00
2022-09-24T09:18:59.800Z,101247.22
2022-09-24T09:21:32.306Z,101251.13
2022-09-24T09:24:02.566Z,101251.97
2022-09-24T09:26:30.269Z,101246.13
2022-09-24T09:29:00.949Z,101253.06
2022-09-24T09:31:44.075Z,101246.34
2022-09-24T09:34:30.279Z,101247.09
2022-09-24T09:37:08.734Z,101251.56
2022-09-24T09:39:45.727Z,101253.72
2022-09-24T09:42:32.098Z,101256.91
2022-09-24T09:45:02.557Z,101259.44
2022-09-24T09:47:42.535Z,101252.88
2022-09-24T09:50:20.657Z,101255.38
2022-09-24T09:52:48.323Z,101256.34
2022-09-24T09:55:25.081Z,101260.03
2022-09-24T09:57:53.297Z,101263.19
2022-09-24T10:00:29.359Z,101259.63
2022-09-24T10:02:58.414Z,101268.38
2022-09-24T10:05:28.676Z,101267.53
2022-09-24T10:07:58.015Z,101255.78
2022-09-24T10:10:27.021Z,101257.53
2022-09-24T10:12:56.320Z,101257.66
2022-09-24T10:15:25.728Z,101257.31
2022-09-24T10:17:55.375Z,101252.16
2022-09-24T10:20:27.469Z,101253.44
2022-09-24T10:22:58.595Z,101260.16
2022-09-24T10:25:29.401Z,101248.56
2022-09-24T10:28:20.951Z,101253.38
2022-09-24T10:30:51.510Z,101261.22
2022-09-24T10:33:19.650Z,101253.22
2022-09-24T10:35:48.563Z,101259.78
2022-09-24T10:38:18.611Z,101254.03
2022-09-24T10:40:47.040Z,101251.88
2022-09-24T10:43:20.285Z,101249.47
2022-09-24T10:46:07.313Z,101252.78
2022-09-24T10:48:44.073Z,101260.16
2022-09-24T10:51:28.904Z,101254.91
2022-09-24T10:54:10.751Z,101251.94
2022-09-24T10:56:45.992Z,101251.59
2022-09-24T10:59:29.341Z,101256.16
2022-09-24T11:02:15.973Z,101250.28
2022-09-24T11:04:51.726Z,101250.28
2022-09-24T11:07:43.808Z,101243.91
2022-09-24T11:10:28.995Z,101248.97
2022-09-24T11:13:11.447Z,101249.09
2022-09-24T11:16:26.514Z,101253.66
2022-09-24T11:18:58.678Z,101242.63
2022-09-24T11:21:57.564Z,101244.41
2022-09-24T11:24:47.952Z,101243.47
2022-09-24T11:27:38.265Z,101251.06
2022-09-24T11:30:11.685Z,101240.97
2022-09-24T11:32:51.685Z,101249.81
2022-09-24T11:35:36.101Z,101246.75
2022-09-24T11:38:09.682Z,101250.50
2022-09-24T11:41:11.371Z,101253.97
2022-09-24T11:44:03.651Z,101247.69
2022-09-24T11:46:49.180Z,101249.78
2022-09-24T11:49:36.687Z,101252.94
2022-09-24T11:52:10.021Z,101256.09
2022-09-24T11:54:46.152Z,101260.53
2022-09-24T11:57:21.893Z,101257.38
2022-09-24T11:59:55.637Z,101254.97
2022-09-24T12:02:27.853Z,101258.03
2022-09-24T12:05:01.708Z,101256.03
2022-09-24T12:07:35.463Z,101254.00
2022-09-24T12:10:08.654Z,101258.88
2022-09-24T12:12:42.939Z,101259.59
2022-09-24T12:15:19.371Z,101253.81
2022-09-24T12:17:53.054Z,101247.59
2022-09-24T12:20:25.763Z,101250.66
2022-09-24T12:23:00.178Z,101249.16
2022-09-24T12:25:33.501Z,101255.41
2022-09-24T12:28:02.935Z,101250.31
2022-09-24T12:30:56.959Z,101250.13
2022-09-24T12:33:30.478Z,101250.13
2022-09-24T12:36:06.110Z,101243.66
2022-09-24T12:38:37.998Z,101248.00
2022-09-24T12:41:29.290Z,101242.28
2022-09-24T12:44:03.865Z,101245.09
2022-09-24T12:46:36.107Z,101242.41
2022-09-24T12:49:03.866Z,101248.50
2022-09-24T12:51:37.503Z,101242.38
2022-09-24T12:54:16.307Z,101248.78
2022-09-24T12:56:44.360Z,101239.81
2022-09-24T12:59:26.842Z,101238.75
2022-09-24T13:01:54.605Z,101242.50
2022-09-24T13:04:30.030Z,101238.38
2022-09-24T13:06:57.681Z,101238.81
2022-09-24T13:09:37.700Z,101244.69
2022-09-24T13:12:20.875Z,101239.38
2022-09-24T13:15:01.383Z,101233.75
2022-09-24T13:17:29.851Z,101239.00
2022-09-24T13:19:59.574Z,101235.94
2022-09-24T13:22:30.319Z,101236.19
2022-09-24T13:25:22.633Z,101233.47
2022-09-24T13:28:02.411Z,101238.03
2022-09-24T13:30:39.818Z,101232.66
2022-09-24T13:33:21.128Z,101238.50
2022-09-24T13:36:01.879Z,101243.06
2022-09-24T13:38:32.840Z,101242.22
2022-09-24T13:41:08.216Z,101241.25
2022-09-24T13:43:44.839Z,101237.53
2022-09-24T13:46:17.027Z,101239.38
2022-09-24T13:48:51.119Z,101239.00
2022-09-24T13:51:23.529Z,101246.06
2022-09-24T13:53:56.512Z,101243.50
2022-09-24T13:56:24.507Z,101236.75
2022-09-24T13:58:52.182Z,101247.88
2022-09-24T14:01:25.295Z,101243.06
2022-09-24T14:03:55.485Z,101240.72
2022-09-24T14:06:33.730Z,101240.22
2022-09-24T14:09:02.133Z,101250.34
2022-09-24T14:11:29.839Z,101247.91
2022-09-24T14:13:59.126Z,101249.03
2022-09-24T14:16:28.117Z,101243.75
2022-09-24T14:19:03.079Z,101246.91
2022-09-24T14:21:35.905Z,101240.97
2022-09-24T14:24:07.425Z,101242.28
2022-09-24T14:26:37.659Z,101251.19
2022-09-24T14:29:09.951Z,101244.19
2022-09-24T14:31:47.112Z,101239.88
2022-09-24T14:34:26.030Z,101254.97
2022-09-24T14:36:54.423Z,101254.16
2022-09-24T14:39:24.575Z,101252.53
2022-09-24T14:41:53.010Z,101257.31
2022-09-24T14:44:24.186Z,101255.66
2022-09-24T14:46:56.242Z,101248.88
2022-09-24T14:49:25.650Z,101247.84
2022-09-24T14:51:55.337Z,101247.66
2022-09-24T14:54:29.442Z,101247.66
2022-09-24T14:56:57.042Z,101242.50
2022-09-24T14:59:30.536Z,101243.56
2022-09-24T15:02:16.530Z,101246.66
2022-09-24T15:04:47.284Z,101246.66
2022-09-24T15:07:18.309Z,101247.06
2022-09-24T15:09:50.392Z,101237.59
2022-09-24T15:12:21.294Z,101250.34
2022-09-24T15:14:57.214Z,101247.50
2022-09-24T15:17:31.338Z,101244.13
2022-09-24T15:19:59.185Z,101248.06
2022-09-24T15:22:27.937Z,101254.69
2022-09-24T15:25:00.415Z,101252.00
2022-09-24T15:27:31.431Z,101249.31
2022-09-24T15:30:00.259Z,101256.75
2022-09-24T15:32:31.020Z,101252.63
2022-09-24T15:34:58.679Z,101245.38
2022-09-24T15:37:29.434Z,101258.59
2022-09-24T15:40:01.202Z,101247.88
2022-09-24T15:42:28.888Z,101249.53
2022-09-24T15:44:56.416Z,101246.44
2022-09-24T15:47:24.158Z,101254.69
2022-09-24T15:49:53.085Z,101249.72
2022-09-24T15:52:25.365Z,101260.47
2022-09-24T15:54:53.753Z,101258.41
2022-09-24T15:57:22.519Z,101261.28
2022-09-24T15:59:50.620Z,101256.34
2022-09-24T16:02:21.984Z,101268.31
2022-09-24T16:04:49.751Z,101263.56
2022-09-24T16:07:18.661Z,101261.91
2022-09-24T16:09:46.366Z,101261.91
2022-09-24T16:12:15.954Z,101257.56
2022-09-24T16:14:43.958Z,101256.13
2022-09-24T16:17:12.091Z,101260.47
2022-09-24T16:19:39.734Z,101263.56
2022-09-24T16:22:07.359Z,101256.38
2022-09-24T16:24:36.277Z,101259.84
2022-09-24T16:27:04.270Z,101259.66
2022-09-24T16:29:31.799Z,101266.66
2022-09-24T16:31:59.329Z,101264.78
2022-09-24T16:34:27.342Z,101266.66
2022-09-24T16:36:55.017Z,101262.09
2022-09-24T16:39:22.815Z,101264.78
2022-09-24T16:41:52.345Z,101263.16
2022-09-24T16:44:19.885Z,101258.00
2022-09-24T16:46:47.470Z,101261.09
2022-09-24T16:49:15.095Z,101262.13
2022-09-24T16:51:42.640Z,101266.84
2022-09-24T16:54:11.922Z,101268.09
2022-09-24T16:56:39.458Z,101264.59
2022-09-24T16:59:08.425Z,101273.47
2022-09-24T17:01:36.035Z,101279.84
2022-09-24T17:04:04.160Z,101275.53
2022-09-24T17:06:32.430Z,101275.72
2022-09-24T17:09:17.719Z,101281.91
2022-09-24T17:11:46.702Z,101273.03
2022-09-24T17:14:16.815Z,101280.47
2022-09-24T17:16:44.894Z,101287.06
2022-09-24T17:19:13.473Z,101286.44
2022-09-24T17:21:43.389Z,101279.44
2022-09-24T17:24:11.232Z,101285.63
2022-09-24T17:26:39.427Z,101284.81
2022-09-24T17:29:06.998Z,101278.63
2022-09-24T17:31:35.892Z,101283.97
2022-09-24T17:34:05.465Z,101278.63
2022-09-24T17:36:34.931Z,101288.50
2022-09-24T17:39:03.065Z,101290.56
2022-09-24T17:41:31.246Z,101284.38
2022-09-24T17:43:59.632Z,101297.78
2022-09-24T17:46:28.919Z,101296.13
2022-09-24T17:48:59.379Z,101297.16
2022-09-24T17:51:28.415Z,101287.66
2022-09-24T17:53:56.460Z,101293.25
2022-09-24T17:56:25.566Z,101295.91
2022-09-24T17:58:55.363Z,101300.66
2022-09-24T18:01:24.913Z,101298.16
2022-09-24T18:03:54.912Z,101299.00
2022-09-24T18:06:28.214Z,101304.56
2022-09-24T18:09:01.038Z,101303.53
2022-09-24T18:11:30.404Z,101306.22
2022-09-24T18:13:59.729Z,101305.38
2022-09-24T18:16:29.703Z,101314.66
2022-09-24T18:18:59.518Z,101308.88
2022-09-24T18:21:29.466Z,101309.69
2022-09-24T18:23:58.594Z,101317.97
2022-09-24T18:26:29.283Z,101317.31
2022-09-24T18:28:59.030Z,101316.66
2022-09-24T18:31:29.305Z,101319.69
2022-09-24T18:34:03.316Z,101324.84
2022-09-24T18:36:33.521Z,101325.81
2022-09-24T18:39:01.156Z,101329.72
2022-09-24T18:41:30.517Z,101329.91
2022-09-24T18:43:59.502Z,101337.31
2022-09-24T18:46:29.607Z,101334.19
2022-09-24T18:48:58.383Z,101333.75
2022-09-24T18:51:27.429Z,101343.44
2022-09-24T18:53:57.818Z,101330.88
2022-09-24T18:56:25.665Z,101329.03
2022-09-24T18:58:56.559Z,101337.06
2022-09-24T19:01:24.293Z,101323.88
2022-09-24T19:03:52.401Z,101330.44
2022-09-24T19:06:20.138Z,101326.31
2022-09-24T19:08:48.995Z,101329.63
2022-09-24T19:11:18.296Z,101336.63
2022-09-24T19:13:50.213Z,101330.88
2022-09-24T19:16:19.373Z,101331.91
2022-09-24T19:18:47.431Z,101342.44
2022-09-24T19:21:15.513Z,101335.41
2022-09-24T19:23:45.595Z,101332.94
2022-09-24T19:26:15.053Z,101336.63
2022-09-24T19:28:45.410Z,101335.38
2022-09-24T19:31:17.055Z,101332.91
2022-09-24T19:33:45.051Z,101334.94
2022-09-24T19:36:13.123Z,101323.59
2022-09-24T19:38:41.639Z,101328.34
2022-09-24T19:41:13.294Z,101330.13
2022-09-24T19:43:42.675Z,101328.09
2022-09-24T19:46:14.572Z,101324.59
2022-09-24T19:48:45.273Z,101336.53
2022-09-24T19:51:15.033Z,101326.41
2022-09-24T19:53:43.365Z,101329.91
2022-09-24T19:56:13.174Z,101326.41
2022-09-24T19:58:41.191Z,101325.56
2022-09-24T20:01:14.935Z,101333.41
2022-09-24T20:03:44.875Z,101333.41
2022-09-24T20:06:16.942Z,101331.56
2022-09-24T20:08:45.410Z,101329.06
2022-09-24T20:11:15.194Z,101329.06
2022-09-24T20:13:46.220Z,101319.22
2022-09-24T20:16:19.245Z,101323.72
2022-09-24T20:18:47.702Z,101330.75
2022-09-24T20:21:18.208Z,101325.81
2022-09-24T20:23:46.497Z,101322.94
2022-09-24T20:26:32.971Z,101319.25
2022-09-24T20:29:01.383Z,101330.41
2022-09-24T20:31:30.991Z,101331.84
2022-09-24T20:33:58.578Z,101331.63
2022-09-24T20:36:26.130Z,101335.75
2022-09-24T20:38:54.031Z,101331.06
2022-09-24T20:41:23.220Z,101326.31
2022-09-24T20:43:51.146Z,101325.09
2022-09-24T20:46:21.873Z,101326.53
2022-09-24T20:48:51.123Z,101328.38
2022-09-24T20:51:20.487Z,101335.41
2022-09-24T20:53:49.835Z,101330.88
2022-09-24T20:56:18.494Z,101329.22
2022-09-24T20:58:48.058Z,101328.38
2022-09-24T21:01:15.951Z,101334.56
2022-09-24T21:03:45.243Z,101330.88
2022-09-24T21:06:16.493Z,101329.22
2022-09-24T21:08:46.862Z,101331.06
2022-09-24T21:11:17.929Z,101328.59
2022-09-24T21:13:49.915Z,101326.94
2022-09-24T21:16:19.733Z,101326.31
2022-09-24T21:18:48.589Z,101315.78
2022-09-24T21:21:19.342Z,101316.84
2022-09-24T21:23:49.370Z,101315.19
2022-09-24T21:26:18.931Z,101314.34
2022-09-24T21:28:47.490Z,101313.72
2022-09-24T21:31:15.524Z,101313.50
2022-09-24T21:33:46.563Z,101310.03
2022-09-24T21:36:18.491Z,101312.06
2022-09-24T21:38:54.136Z,101317.63
2022-09-24T21:41:22.705Z,101309.78
2022-09-24T21:43:50.414Z,101315.13
2022-09-24T21:46:17.981Z,101314.50
2022-09-24T21:48:45.649Z,101312.84
2022-09-24T21:51:19.362Z,101313.91
2022-09-24T21:53:49.044Z,101312.44
2022-09-24T21:56:18.754Z,101315.13
2022-09-24T21:58:46.726Z,101320.66
2022-09-24T22:01:17.009Z,101323.34
2022-09-24T22:03:45.327Z,101317.78
2022-09-24T22:06:13.012Z,101317.78
2022-09-24T22:08:40.891Z,101320.09
2022-09-24T22:11:12.111Z,101319.69
2022-09-24T22:13:40.354Z,101318.66
2022-09-24T22:16:10.606Z,101310.81
2022-09-24T22:18:38.836Z,101308.16
2022-09-24T22:21:09.182Z,101309.78
2022-09-24T22:23:37.091Z,101312.47
2022-09-24T22:26:05.797Z,101314.13
2022-09-24T22:28:35.506Z,101308.78
2022-09-24T22:31:07.487Z,101303.41
2022-09-24T22:33:53.163Z,101307.94
2022-09-24T22:36:20.751Z,101304.25
2022-09-24T22:38:49.287Z,101308.97
2022-09-24T22:41:16.846Z,101300.69
2022-09-24T22:43:45.878Z,101306.44
2022-09-24T22:46:16.344Z,101306.66
2022-09-24T22:48:44.060Z,101293.00
2022-09-24T22:51:11.839Z,101294.91
2022-09-24T22:53:40.998Z,101297.75
2022-09-24T22:56:10.534Z,101294.91
2022-09-24T22:58:39.880Z,101292.22
2022-09-24T23:01:10.925Z,101295.69
2022-09-24T23:03:39.263Z,101294.69
2022-09-24T23:06:07.650Z,101294.28
2022-09-24T23:08:37.010Z,101289.94
2022-09-24T23:11:09.365Z,101287.47
2022-09-24T23:13:38.202Z,101294.28
2022-09-24T23:16:13.798Z,101288.94
2022-09-24T23:18:42.299Z,101292.63
2022-09-24T23:21:12.314Z,101286.25
2022-09-24T23:23:40.027Z,101292.22
2022-09-24T23:26:16.265Z,101286.25
2022-09-24T23:28:45.637Z,101289.94
2022-09-24T23:31:16.103Z,101283.78
2022-09-24T23:33:44.298Z,101288.09
2022-09-24T23:36:14.026Z,101289.94
2022-09-24T23:38:42.584Z,101282.13
2022-09-24T23:41:11.622Z,101287.47
2022-09-24T23:43:39.564Z,101290.16
2022-09-24T23:46:07.353Z,101281.31
2022-09-24T23:48:36.713Z,101281.31
2022-09-24T23:51:04.323Z,101288.31
2022-09-24T23:53:33.603Z,101285.81
2022-09-24T23:56:01.642Z,101292.84
2022-09-24T23:58:29.496Z,101283.16
